METAR Data
IDs: Format: Raw Decoded Include TAF

Data at: 2115 UTC 06 Dec 2019

KSPA 062115Z AUTO 23003KT 10SM CLR 12/01 A3016 RMK AO2
KSPA 062055Z AUTO 00000KT 10SM CLR 13/01 A3015 RMK AO2
KSPA 062035Z AUTO 00000KT 10SM CLR 13/01 A3014 RMK AO2
KSPA 062015Z AUTO 00000KT 10SM SCT120 12/01 A3014 RMK AO2
KSPA 061955Z AUTO 00000KT 10SM SCT120 12/01 A3014 RMK AO2
KSPA 061935Z AUTO 00000KT 10SM SCT100 12/01 A3014 RMK AO2
KSPA 061915Z AUTO 00000KT 10SM BKN100 11/01 A3016 RMK AO2
KSPA 061855Z AUTO 00000KT 10SM BKN100 BKN120 10/01 A3016 RMK AO2
KSPA 061835Z AUTO 00000KT 10SM SCT070 SCT090 SCT120 10/01 A3017 RMK AO2
KSPA 061815Z AUTO 21004KT 10SM SCT070 SCT100 SCT120 10/00 A3019 RMK AO2
KSPA 061755Z AUTO 22004KT 10SM CLR 11/00 A3020 RMK AO2
KSPA 061735Z AUTO 23004KT 10SM BKN065 10/01 A3020 RMK AO2
KSPA 061715Z AUTO 21003KT 10SM SCT055 OVC065 08/01 A3022 RMK AO2
KSPA 061655Z AUTO 00000KT 10SM -DZ SCT038 BKN060 OVC075 08/01 A3021 RMK AO2
KSPA 061635Z AUTO 22003KT 10SM SCT055 BKN070 OVC080 08/00 A3023 RMK AO2
KSPA 061615Z AUTO 24004KT 10SM SCT075 OVC085 08/00 A3024 RMK AO2
KSPA 061555Z AUTO 00000KT 10SM BKN075 OVC090 08/00 A3024 RMK AO2
KSPA 061535Z AUTO 00000KT 10SM OVC100 08/00 A3024 RMK AO2
KSPA 061515Z AUTO 23003KT 10SM BKN100 07/00 A3024 RMK AO2
KSPA 061455Z AUTO 00000KT 10SM SCT110 07/00 A3023 RMK AO2
KSPA 061435Z AUTO 00000KT 10SM OVC110 06/00 A3022 RMK AO2
KSPA 061415Z AUTO 00000KT 10SM OVC110 06/00 A3021 RMK AO2
KSPA 061355Z AUTO 00000KT 10SM SCT110 06/00 A3021 RMK AO2
KSPA 061335Z AUTO 00000KT 10SM SCT120 04/01 A3020 RMK AO2
KSPA 061315Z AUTO 00000KT 10SM BKN110 04/01 A3020 RMK AO2
KSPA 061255Z AUTO 00000KT 10SM SCT100 03/00 A3020 RMK AO2
KSPA 061235Z AUTO 00000KT 10SM SCT110 03/01 A3020 RMK AO2
KSPA 061215Z AUTO 00000KT 10SM BKN110 03/00 A3020 RMK AO2
KSPA 061155Z AUTO 00000KT 10SM SCT110 03/00 A3020 RMK AO2
KSPA 061135Z AUTO 00000KT 10SM SCT120 04/00 A3020 RMK AO2
KSPA 061115Z AUTO 00000KT 10SM BKN120 04/01 A3020 RMK AO2
KSPA 061055Z AUTO 00000KT 10SM BKN120 04/01 A3020 RMK AO2
KSPA 061035Z AUTO 00000KT 10SM OVC120 04/01 A3020 RMK AO2
KSPA 061015Z AUTO 00000KT 10SM OVC110 04/01 A3019 RMK AO2
KSPA 060955Z AUTO 00000KT 10SM OVC110 04/00 A3019 RMK AO2
KSPA 060935Z AUTO 00000KT 10SM OVC120 04/00 A3019 RMK AO2
KSPA 060915Z AUTO 00000KT 10SM BKN110 04/01 A3019 RMK AO2
KSPA 060855Z AUTO 00000KT 10SM BKN110 04/00 A3019 RMK AO2
KSPA 060835Z AUTO 00000KT 10SM SCT120 04/00 A3020 RMK AO2
KSPA 060815Z AUTO 00000KT 10SM CLR 03/00 A3021 RMK AO2
KSPA 060755Z AUTO 00000KT 10SM CLR 03/00 A3020 RMK AO2
KSPA 060735Z AUTO 00000KT 10SM CLR 03/00 A3020 RMK AO2
KSPA 060715Z AUTO 00000KT 10SM CLR 02/00 A3019 RMK AO2
KSPA 060655Z AUTO 00000KT 10SM CLR 02/M01 A3019 RMK AO2
KSPA 060635Z AUTO 00000KT 10SM CLR 01/M02 A3019 RMK AO2
KSPA 060615Z AUTO 00000KT 10SM CLR 02/M02 A3019 RMK AO2
KSPA 060555Z AUTO 00000KT 10SM CLR 02/M02 A3019 RMK AO2
KSPA 060535Z AUTO 00000KT 10SM CLR 02/M02 A3019 RMK AO2
KSPA 060515Z AUTO 00000KT 10SM CLR 02/M02 A3019 RMK AO2
KSPA 060455Z AUTO 00000KT 10SM CLR 02/M01 A3019 RMK AO2
KSPA 060435Z AUTO 00000KT 10SM CLR 03/M02 A3019 RMK AO2
KSPA 060415Z AUTO 00000KT 10SM CLR 03/M02 A3019 RMK AO2
KSPA 060355Z AUTO 00000KT 10SM CLR 03/M02 A3019 RMK AO2
KSPA 060335Z AUTO 00000KT 10SM CLR 03/M02 A3018 RMK AO2
KSPA 060315Z AUTO 00000KT 10SM CLR 03/M02 A3017 RMK AO2
KSPA 060255Z AUTO 00000KT 10SM CLR 04/M01 A3017 RMK AO2
KSPA 060235Z AUTO 00000KT 10SM CLR 05/M02 A3016 RMK AO2
KSPA 060215Z AUTO 00000KT 10SM CLR 04/M02 A3016 RMK AO2
KSPA 060155Z AUTO 00000KT 10SM CLR 05/M02 A3016 RMK AO2
KSPA 060135Z AUTO 00000KT 10SM CLR 06/M02 A3015 RMK AO2
KSPA 060115Z AUTO 00000KT 10SM CLR 06/M02 A3015 RMK AO2
KSPA 060055Z AUTO 00000KT 10SM CLR 07/M03 A3015 RMK AO2
KSPA 060035Z AUTO 00000KT 10SM CLR 08/M04 A3015 RMK AO2
KSPA 060015Z AUTO 00000KT 10SM CLR 07/M03 A3015 RMK AO2
KSPA 052355Z AUTO 00000KT 10SM CLR 09/M03 A3014 RMK AO2
KSPA 052335Z AUTO 00000KT 10SM CLR 09/M03 A3013 RMK AO2
KSPA 052315Z AUTO 00000KT 10SM CLR 11/M06 A3012 RMK AO2
KSPA 052255Z AUTO 00000KT 10SM CLR 11/M05 A3012 RMK AO2
KSPA 052235Z AUTO 00000KT 10SM CLR 12/M05 A3011 RMK AO2
KSPA 052215Z AUTO 00000KT 10SM CLR 15/M08 A3010 RMK AO2
KSPA 052155Z AUTO 22003KT 10SM CLR 16/M08 A3010 RMK AO2
KSPA 052135Z AUTO 00000KT 10SM CLR 16/M07 A3010 RMK AO2
KSPA 052115Z AUTO 24003KT 10SM CLR 17/M07 A3009 RMK AO2
KSPA 052055Z AUTO 27005KT 10SM CLR 16/M07 A3008 RMK AO2
KSPA 052035Z AUTO 26003KT 10SM CLR 17/M08 A3008 RMK AO2
KSPA 052015Z AUTO 28006KT 10SM CLR 17/M09 A3007 RMK AO2
KSPA 051955Z AUTO 35004KT 10SM CLR 17/M10 A3007 RMK AO2
KSPA 051935Z AUTO 28006KT 10SM CLR 17/M08 A3007 RMK AO2
KSPA 051915Z AUTO 00000KT 10SM CLR 16/M11 A3007 RMK AO2
KSPA 051855Z AUTO 34004KT 10SM CLR 16/M10 A3007 RMK AO2
KSPA 051835Z AUTO 30007KT 10SM CLR 16/M09 A3007 RMK AO2
KSPA 051815Z AUTO 31004KT 10SM CLR 15/M08 A3008 RMK AO2
KSPA 051755Z AUTO 31006KT 10SM CLR 15/M08 A3009 RMK AO2
KSPA 051735Z AUTO 32005KT 10SM CLR 15/M07 A3009 RMK AO2
KSPA 051715Z AUTO 29008KT 10SM CLR 14/M08 A3010 RMK AO2
KSPA 051655Z AUTO 31011G14KT 300V010 10SM CLR 13/M08 A3010 RMK AO2
KSPA 051635Z AUTO 34007KT 10SM CLR 13/M07 A3011 RMK AO2
KSPA 051615Z AUTO 35006KT 10SM CLR 12/M08 A3011 RMK AO2
KSPA 051555Z AUTO 32006KT 10SM CLR 12/M06 A3011 RMK AO2
KSPA 051535Z AUTO 32009KT 10SM CLR 12/M06 A3010 RMK AO2
KSPA 051515Z AUTO 31008KT 10SM CLR 12/M06 A3010 RMK AO2
KSPA 051455Z AUTO 33007KT 10SM CLR 11/M06 A3009 RMK AO2
KSPA 051435Z AUTO 36004KT 10SM CLR 11/M05 A3007 RMK AO2
KSPA 051415Z AUTO 31010G15KT 10SM CLR 10/M05 A3005 RMK AO2
KSPA 051355Z AUTO 35008KT 10SM CLR 09/M04 A3005 RMK AO2
KSPA 051335Z AUTO 35006KT 10SM CLR 10/M05 A3004 RMK AO2
KSPA 051315Z AUTO 26003KT 10SM CLR 06/M03 A3003 RMK AO2
KSPA 051255Z AUTO 00000KT 10SM CLR 07/M05 A3003 RMK AO2
KSPA 051235Z AUTO 33004KT 10SM CLR 07/M05 A3002 RMK AO2
KSPA 051215Z AUTO 29004KT 10SM CLR 07/M05 A3000 RMK AO2
KSPA 051155Z AUTO 31003KT 10SM CLR 07/M05 A3000 RMK AO2
KSPA 051135Z AUTO 29004KT 10SM CLR 04/M03 A3000 RMK AO2
KSPA 051115Z AUTO 29003KT 10SM CLR 05/M03 A2999 RMK AO2
KSPA 051055Z AUTO 27004KT 10SM CLR 04/M03 A2998 RMK AO2
KSPA 051035Z AUTO 27005KT 10SM CLR 04/M02 A2997 RMK AO2
KSPA 051015Z AUTO 26005KT 10SM CLR 03/M02 A2995 RMK AO2
KSPA 050955Z AUTO 27004KT 10SM CLR 02/M02 A2994 RMK AO2
KSPA 050935Z AUTO 27004KT 10SM CLR 01/M02 A2993 RMK AO2